Eastern Passage, Nova Scotia

11:43 AM ADT on May 06, 2015 (GMT -0300)
Halifax / Shearwater | | Change Station
CLOSE
Current Station
Airport
Location: Shearwater,
Elevation: 167 ft
Nearby Weather Stations

Elev 167 ft 44.64 °N, 63.51 °W | Updated 43 minutes ago

Partly Cloudy
Partly Cloudy
57 °F
Feels Like 57 °F
N
21
Wind Variable Wind from West
Gusts 29 mph

Today is forecast to be nearly the same temperature as yesterday.

Today
High -- | Low -- °F
--% Chance of Precip.
Yesterday
High -- | Low -- °F
Precip. -- in
5:57 AM 8:24 PM
Waning Gibbous, 94% visible
Pressure 30.13 in
Visibility 15.0 miles
Clouds Few 4000 ft
Dew Point 32 °F
Humidity 38%
Rainfall 0.00 in
Snow Depth Not available.
UV 7 out of 12
Pollen Not available.
Air Quality Not available.
Flu Activity Not available.
METAR CYAW 061400Z 28018G25KT 15SM FEW040 14/00 A3012 RMK CU1 DA-87FT SLP201

More Conditions Fewer Conditions

Pressure 30.13 in
Visibility 15.0 miles
Clouds Few 4000 ft
Dew Point 32 °F
Humidity 38%
Rainfall 0.00 in
Snow Depth Not available.
UV 7 out of 12
Pollen Not available.
Air Quality Not available.
Flu Activity Not available.
METAR CYAW 061400Z 28018G25KT 15SM FEW040 14/00 A3012 RMK CU1 DA-87FT SLP201

More Conditions Fewer Conditions

10-Day Weather Forecast

Almanac

Astronomy

May. 06, 2015 Rise Set
Actual Time
Civil Twilight
Nautical Twilight
Astronomical Twilight
Moon
Length of Visible Light
Length of Day
Tomorrow will be .
, % of the Moon is Illuminated

Today's Extremes

Country Highs Country Lows

Community

WunderPhotos

Upload Photos

1,818,920 photos uploaded!

WunderBlogs® & News

Nearby

Air Quality

  Air Quality AQ Index Pollutant
Not available.

Snow Depth

Station Depth Elevation

Earthquake Activity

City Distance Mag. Time & Date
Minimum magnitude displayed is 2.5.

Coastal Water Temperatures

Place Temperature

Stations

Nearby Weather Stations

Station Location Temp. Windchill Dew Point Humidity Wind Precip. Elev Updated Type